createdAt,value
2023-01-19T00:00:32.651Z,81.03
2023-01-19T00:03:02.640Z,80.58
2023-01-19T00:05:30.030Z,80.14
2023-01-19T00:07:57.155Z,80.03
2023-01-19T00:10:24.201Z,79.76
2023-01-19T00:12:53.641Z,80.16
2023-01-19T00:15:20.612Z,80.06
2023-01-19T00:17:53.433Z,80.04
2023-01-19T00:20:20.282Z,80.10
2023-01-19T00:22:51.098Z,79.61
2023-01-19T00:25:18.163Z,80.70
2023-01-19T00:27:49.369Z,81.25
2023-01-19T00:30:18.900Z,80.58
2023-01-19T00:32:45.746Z,80.05
2023-01-19T00:35:12.660Z,80.37
2023-01-19T00:37:46.063Z,80.42
2023-01-19T00:40:14.164Z,80.46
2023-01-19T00:42:48.530Z,80.11
2023-01-19T00:45:19.772Z,78.82
2023-01-19T00:47:48.834Z,78.98
2023-01-19T00:50:19.078Z,78.29
2023-01-19T00:52:48.489Z,78.26
2023-01-19T00:55:16.707Z,77.83
2023-01-19T00:57:46.373Z,79.16
2023-01-19T01:00:19.456Z,78.21
2023-01-19T01:02:48.540Z,78.99
2023-01-19T01:05:18.776Z,79.29
2023-01-19T01:07:49.830Z,77.88
2023-01-19T01:10:27.169Z,77.42
2023-01-19T01:12:56.665Z,79.03
2023-01-19T01:15:26.466Z,78.68
2023-01-19T01:17:53.929Z,78.04
2023-01-19T01:20:27.769Z,79.21
2023-01-19T01:22:56.644Z,79.01
2023-01-19T01:25:26.702Z,79.23
2023-01-19T01:27:54.940Z,79.05
2023-01-19T01:30:27.854Z,78.30
2023-01-19T01:33:00.915Z,78.07
2023-01-19T01:35:39.742Z,79.43
2023-01-19T01:38:09.674Z,79.42
2023-01-19T01:40:43.510Z,78.65
2023-01-19T01:43:21.349Z,79.31
2023-01-19T01:45:49.379Z,79.48
2023-01-19T01:48:28.622Z,79.83
2023-01-19T01:51:25.645Z,79.09
2023-01-19T01:54:19.497Z,78.68
2023-01-19T01:57:03.919Z,78.80
2023-01-19T01:59:57.070Z,79.35
2023-01-19T02:02:46.617Z,79.84
2023-01-19T02:05:30.786Z,80.38
2023-01-19T02:08:44.191Z,80.41
2023-01-19T02:11:30.823Z,79.93
2023-01-19T02:13:58.601Z,80.23
2023-01-19T02:16:30.363Z,80.81
2023-01-19T02:19:04.913Z,80.85
2023-01-19T02:22:04.526Z,80.83
2023-01-19T02:24:38.065Z,80.58
2023-01-19T02:27:10.203Z,80.17
2023-01-19T02:29:38.209Z,80.88
2023-01-19T02:32:08.828Z,80.95
2023-01-19T02:34:45.784Z,80.53
2023-01-19T02:37:18.690Z,80.59
2023-01-19T02:40:04.502Z,80.36
2023-01-19T02:42:51.001Z,80.64
2023-01-19T02:45:24.408Z,80.61
2023-01-19T02:47:54.233Z,81.42
2023-01-19T02:50:53.546Z,80.22
2023-01-19T02:53:46.585Z,80.68
2023-01-19T02:57:20.840Z,81.11
2023-01-19T03:00:31.559Z,81.76
2023-01-19T03:04:05.821Z,82.19
2023-01-19T03:07:21.898Z,81.79
2023-01-19T03:10:25.587Z,81.51
2023-01-19T03:14:03.289Z,82.90
2023-01-19T03:17:11.815Z,82.41
2023-01-19T03:19:52.206Z,81.30
2023-01-19T03:22:31.824Z,81.47
2023-01-19T03:25:04.774Z,81.21
2023-01-19T03:27:45.820Z,81.39
2023-01-19T03:31:10.432Z,81.34
2023-01-19T03:33:52.697Z,80.49
2023-01-19T03:36:40.929Z,80.79
2023-01-19T03:39:25.087Z,80.73
2023-01-19T03:42:16.076Z,81.66
2023-01-19T03:45:04.101Z,81.16
2023-01-19T03:47:37.142Z,81.49
2023-01-19T03:50:18.212Z,80.61
2023-01-19T03:53:15.788Z,80.34
2023-01-19T03:56:04.336Z,82.14
2023-01-19T03:58:35.965Z,81.28
2023-01-19T04:01:06.907Z,81.73
2023-01-19T04:03:44.888Z,81.90
2023-01-19T04:06:16.582Z,81.74
2023-01-19T04:08:47.352Z,82.20
2023-01-19T04:11:27.495Z,82.72
2023-01-19T04:14:02.007Z,83.77
2023-01-19T04:16:36.215Z,83.70
2023-01-19T04:19:03.524Z,82.67
2023-01-19T04:21:44.036Z,82.11
2023-01-19T04:24:12.123Z,82.49
2023-01-19T04:26:49.420Z,82.61
2023-01-19T04:29:19.946Z,81.94
2023-01-19T04:32:02.623Z,80.64
2023-01-19T04:34:38.977Z,80.08
2023-01-19T04:37:14.949Z,82.04
2023-01-19T04:39:51.491Z,81.75
2023-01-19T04:42:35.581Z,81.38
2023-01-19T04:45:03.673Z,83.53
2023-01-19T04:47:34.025Z,83.75
2023-01-19T04:50:23.083Z,84.96
2023-01-19T04:52:51.094Z,84.96
2023-01-19T04:55:28.676Z,83.95
2023-01-19T04:57:59.396Z,83.40
2023-01-19T05:00:34.016Z,83.02
2023-01-19T05:03:06.292Z,83.06
2023-01-19T05:05:42.436Z,83.90
2023-01-19T05:08:10.087Z,83.67
2023-01-19T05:10:40.734Z,85.68
2023-01-19T05:13:37.368Z,86.02
2023-01-19T05:16:15.175Z,85.12
2023-01-19T05:18:51.527Z,84.21
2023-01-19T05:21:27.988Z,85.33
2023-01-19T05:24:03.402Z,84.65
2023-01-19T05:26:46.193Z,84.39
2023-01-19T05:29:14.047Z,84.51
2023-01-19T05:31:42.085Z,84.08
2023-01-19T05:34:24.140Z,84.19
2023-01-19T05:37:01.907Z,84.96
2023-01-19T05:39:32.843Z,83.91
2023-01-19T05:42:05.522Z,84.76
2023-01-19T05:44:36.356Z,86.42
2023-01-19T05:47:08.638Z,86.77
2023-01-19T05:49:41.092Z,87.07
2023-01-19T05:52:19.617Z,87.38
2023-01-19T05:54:56.803Z,88.73
2023-01-19T05:57:27.303Z,89.68
2023-01-19T06:00:06.640Z,91.15
2023-01-19T06:02:36.793Z,91.06
2023-01-19T06:05:16.303Z,90.49
2023-01-19T06:07:49.538Z,90.41
2023-01-19T06:10:19.377Z,91.95
2023-01-19T06:12:55.113Z,91.99
2023-01-19T06:15:38.039Z,91.52
2023-01-19T06:18:06.097Z,91.76
2023-01-19T06:20:50.991Z,92.39
2023-01-19T06:23:21.488Z,91.94
2023-01-19T06:25:50.703Z,91.51
2023-01-19T06:28:22.578Z,92.54
2023-01-19T06:30:57.417Z,93.00
2023-01-19T06:33:30.890Z,93.82
2023-01-19T06:35:58.652Z,93.58
2023-01-19T06:38:26.114Z,95.15
2023-01-19T06:40:59.134Z,93.77
2023-01-19T06:43:31.957Z,93.26
2023-01-19T06:46:01.269Z,92.71
2023-01-19T06:48:29.109Z,94.26
2023-01-19T06:51:00.859Z,93.93
2023-01-19T06:53:51.267Z,93.14
2023-01-19T06:56:24.704Z,95.13
2023-01-19T06:59:10.095Z,94.88
2023-01-19T07:01:46.980Z,94.72
2023-01-19T07:04:23.832Z,95.03
2023-01-19T07:07:00.536Z,95.19
2023-01-19T07:09:28.455Z,94.13
2023-01-19T07:12:05.662Z,93.99
2023-01-19T07:14:39.670Z,93.69
2023-01-19T07:17:13.351Z,94.23
2023-01-19T07:19:44.893Z,95.30
2023-01-19T07:22:19.111Z,94.85
2023-01-19T07:24:54.614Z,96.15
2023-01-19T07:27:21.836Z,94.70
2023-01-19T07:29:49.767Z,94.47
2023-01-19T07:32:17.071Z,94.06
2023-01-19T07:34:49.745Z,93.80
2023-01-19T07:37:20.895Z,94.98
2023-01-19T07:39:48.414Z,95.91
2023-01-19T07:42:15.722Z,96.65
2023-01-19T07:44:52.135Z,95.75
2023-01-19T07:47:19.898Z,95.36
2023-01-19T07:49:47.206Z,96.14
2023-01-19T07:52:17.990Z,94.99
2023-01-19T07:54:50.979Z,95.46
2023-01-19T07:57:23.708Z,96.80
2023-01-19T07:59:59.763Z,96.44
2023-01-19T08:02:27.640Z,96.57
2023-01-19T08:04:57.605Z,96.07
2023-01-19T08:07:31.410Z,95.90
2023-01-19T08:10:05.222Z,96.61
2023-01-19T08:12:44.773Z,96.29
2023-01-19T08:15:18.306Z,96.52
2023-01-19T08:17:48.510Z,96.95
2023-01-19T08:20:16.154Z,97.73
2023-01-19T08:22:46.224Z,96.68
2023-01-19T08:25:24.762Z,94.85
2023-01-19T08:28:07.618Z,93.73
2023-01-19T08:30:53.526Z,93.11
2023-01-19T08:33:24.290Z,92.45
2023-01-19T08:35:53.659Z,91.11
2023-01-19T08:38:22.893Z,90.74
2023-01-19T08:40:49.779Z,90.97
2023-01-19T08:43:17.555Z,90.19
2023-01-19T08:45:51.196Z,90.82
2023-01-19T08:48:26.887Z,89.49
2023-01-19T08:50:56.571Z,89.44
2023-01-19T08:53:26.846Z,89.93
2023-01-19T08:56:01.441Z,89.61
2023-01-19T08:58:28.958Z,89.52
2023-01-19T09:00:59.885Z,89.85
2023-01-19T09:03:27.121Z,89.86
2023-01-19T09:05:56.489Z,89.21
2023-01-19T09:08:25.692Z,88.43
2023-01-19T09:10:52.848Z,88.18
2023-01-19T09:13:20.622Z,87.70
2023-01-19T09:15:52.527Z,88.95
2023-01-19T09:18:22.418Z,88.00
2023-01-19T09:20:54.949Z,86.65
2023-01-19T09:23:24.333Z,86.67
2023-01-19T09:25:57.875Z,85.61
2023-01-19T09:28:27.653Z,85.07
2023-01-19T09:30:59.603Z,85.04
2023-01-19T09:33:30.998Z,84.67
2023-01-19T09:35:58.064Z,82.51
2023-01-19T09:38:25.904Z,82.98
2023-01-19T09:40:57.171Z,81.88
2023-01-19T09:43:43.188Z,83.72
2023-01-19T09:46:15.305Z,81.35
2023-01-19T09:49:01.437Z,78.83
2023-01-19T09:51:35.215Z,75.95
2023-01-19T09:54:49.870Z,63.70
2023-01-19T09:57:16.884Z,54.76
2023-01-19T09:59:50.073Z,53.60
2023-01-19T10:02:45.713Z,56.41
2023-01-19T10:05:36.411Z,62.75
2023-01-19T10:08:09.670Z,68.00
2023-01-19T10:10:41.093Z,71.12
2023-01-19T10:13:44.111Z,72.93
2023-01-19T10:16:41.731Z,74.02
2023-01-19T10:19:38.134Z,73.88
2023-01-19T10:22:19.536Z,71.64
2023-01-19T10:24:49.084Z,72.97
2023-01-19T10:27:24.882Z,73.67
2023-01-19T10:29:54.622Z,74.51
2023-01-19T10:32:30.378Z,71.83
2023-01-19T10:34:59.844Z,71.38
2023-01-19T10:37:40.689Z,68.51
2023-01-19T10:40:10.548Z,69.25
2023-01-19T10:42:41.053Z,70.55
2023-01-19T10:45:21.101Z,73.42
2023-01-19T10:47:49.796Z,75.41
2023-01-19T10:50:29.068Z,78.77
2023-01-19T10:53:00.437Z,79.61
2023-01-19T10:55:31.583Z,80.92
2023-01-19T10:58:04.146Z,81.69
2023-01-19T11:00:39.239Z,82.34
2023-01-19T11:03:31.955Z,82.31
2023-01-19T11:06:15.438Z,81.92
2023-01-19T11:08:44.850Z,81.06
2023-01-19T11:11:14.488Z,82.87
2023-01-19T11:13:43.653Z,84.95
2023-01-19T11:16:29.679Z,85.59
2023-01-19T11:19:02.051Z,85.51
2023-01-19T11:21:31.759Z,85.27
2023-01-19T11:24:05.370Z,84.23
2023-01-19T11:26:47.897Z,85.11
2023-01-19T11:29:23.165Z,85.85
2023-01-19T11:31:51.784Z,87.65
2023-01-19T11:34:38.685Z,86.90
2023-01-19T11:37:31.809Z,86.52
2023-01-19T11:40:04.562Z,86.87
2023-01-19T11:42:34.275Z,86.39
2023-01-19T11:45:17.480Z,86.98
2023-01-19T11:47:52.436Z,85.01
2023-01-19T11:50:39.025Z,84.08
2023-01-19T11:53:19.187Z,84.53
2023-01-19T11:55:59.127Z,84.74
2023-01-19T11:58:27.057Z,85.79
2023-01-19T12:01:02.339Z,86.63
2023-01-19T12:03:44.532Z,87.03
2023-01-19T12:06:35.913Z,86.70
2023-01-19T12:09:13.266Z,85.76
2023-01-19T12:11:57.834Z,86.08
2023-01-19T12:14:46.515Z,86.54
2023-01-19T12:17:29.079Z,86.95
2023-01-19T12:20:08.031Z,87.37
2023-01-19T12:22:43.469Z,86.82
2023-01-19T12:25:20.896Z,86.33
2023-01-19T12:27:52.388Z,86.75
2023-01-19T12:30:32.131Z,88.31
2023-01-19T12:33:41.435Z,87.28
2023-01-19T12:36:26.742Z,86.69
2023-01-19T12:39:05.778Z,85.83
2023-01-19T12:41:38.365Z,86.59
2023-01-19T12:44:11.390Z,86.16
2023-01-19T12:46:45.994Z,87.77
2023-01-19T12:49:29.470Z,86.73
2023-01-19T12:52:19.705Z,88.75
2023-01-19T12:55:01.689Z,88.46
2023-01-19T12:57:47.213Z,86.60
2023-01-19T13:00:26.400Z,86.98
2023-01-19T13:03:00.272Z,85.85
2023-01-19T13:05:33.603Z,84.49
2023-01-19T13:08:06.780Z,85.52
2023-01-19T13:11:10.815Z,85.94
2023-01-19T13:13:38.056Z,85.79
2023-01-19T13:16:20.731Z,86.47
2023-01-19T13:18:54.633Z,86.68
2023-01-19T13:21:32.558Z,88.15
2023-01-19T13:24:12.933Z,89.24
2023-01-19T13:26:52.750Z,88.63
2023-01-19T13:29:30.449Z,86.04
2023-01-19T13:32:03.632Z,87.31
2023-01-19T13:34:48.724Z,87.23
2023-01-19T13:37:21.939Z,86.21
2023-01-19T13:39:52.513Z,86.35
2023-01-19T13:42:30.071Z,85.63
2023-01-19T13:45:02.036Z,87.92
2023-01-19T13:47:44.642Z,88.75
2023-01-19T13:50:31.450Z,87.85
2023-01-19T13:52:59.522Z,86.81
2023-01-19T13:55:31.613Z,87.67
2023-01-19T13:58:01.566Z,87.66
2023-01-19T14:00:34.114Z,86.51
2023-01-19T14:03:16.527Z,86.56
2023-01-19T14:05:44.832Z,87.05
2023-01-19T14:08:18.352Z,85.87
2023-01-19T14:10:54.133Z,86.96
2023-01-19T14:13:26.377Z,87.87
2023-01-19T14:16:00.049Z,89.30
2023-01-19T14:18:35.797Z,88.84
2023-01-19T14:21:16.283Z,88.38
2023-01-19T14:23:49.101Z,89.23
2023-01-19T14:26:46.931Z,90.52
2023-01-19T14:29:33.271Z,91.37
2023-01-19T14:32:13.831Z,91.27
2023-01-19T14:34:47.439Z,90.71
2023-01-19T14:37:47.267Z,90.95
2023-01-19T14:40:26.989Z,90.57
2023-01-19T14:43:06.260Z,91.43
2023-01-19T14:45:45.463Z,90.23
2023-01-19T14:48:23.112Z,91.59
2023-01-19T14:51:03.543Z,91.29
2023-01-19T14:53:40.924Z,88.60
2023-01-19T14:56:09.655Z,88.62
2023-01-19T14:58:36.786Z,88.86
2023-01-19T15:01:06.861Z,89.35
2023-01-19T15:03:44.006Z,89.38
2023-01-19T15:06:16.514Z,88.63
2023-01-19T15:08:47.451Z,87.61
2023-01-19T15:11:33.878Z,88.35
2023-01-19T15:14:02.021Z,87.41
2023-01-19T15:16:33.321Z,87.84
2023-01-19T15:19:03.956Z,88.23
2023-01-19T15:21:31.077Z,88.33
2023-01-19T15:23:58.767Z,90.20
2023-01-19T15:26:27.647Z,91.09
2023-01-19T15:28:58.897Z,90.25
2023-01-19T15:31:26.884Z,91.15
2023-01-19T15:33:54.294Z,91.69
2023-01-19T15:36:24.133Z,92.99
2023-01-19T15:38:51.317Z,92.74
2023-01-19T16:17:24.519Z,95.64
2023-01-19T16:19:57.175Z,95.45
2023-01-19T16:22:24.200Z,95.70
2023-01-19T16:24:53.374Z,95.53
2023-01-19T16:27:24.560Z,95.30
2023-01-19T16:29:51.839Z,94.72
2023-01-19T16:32:19.299Z,94.68
2023-01-19T16:34:46.413Z,95.62
2023-01-19T16:37:16.345Z,96.05
2023-01-19T16:39:45.741Z,96.47
2023-01-19T16:42:16.509Z,96.39
2023-01-19T16:44:43.474Z,95.51
2023-01-19T16:47:15.085Z,94.80
2023-01-19T16:49:41.992Z,95.46
2023-01-19T16:52:11.429Z,94.29
2023-01-19T16:54:43.093Z,94.47
2023-01-19T16:57:11.541Z,95.15
2023-01-19T16:59:39.763Z,94.33
2023-01-19T17:02:07.702Z,94.39
2023-01-19T17:04:34.732Z,94.21
2023-01-19T17:07:01.579Z,93.80
2023-01-19T17:09:28.996Z,94.22
2023-01-19T17:11:55.990Z,94.34
2023-01-19T17:14:22.913Z,94.83
2023-01-19T17:16:50.185Z,95.09
2023-01-19T17:19:22.236Z,95.20
2023-01-19T17:21:51.985Z,94.07
2023-01-19T17:24:18.978Z,94.76
2023-01-19T17:26:48.490Z,93.89
2023-01-19T17:29:16.664Z,94.04
2023-01-19T17:31:44.431Z,93.85
2023-01-19T17:34:13.954Z,94.17
2023-01-19T17:36:41.135Z,94.90
2023-01-19T17:39:14.610Z,93.70
2023-01-19T17:41:46.163Z,94.05
2023-01-19T17:44:16.098Z,93.42
2023-01-19T17:46:43.014Z,92.85
2023-01-19T17:49:11.381Z,93.26
2023-01-19T17:51:38.472Z,91.96
2023-01-19T17:54:05.788Z,92.25
2023-01-19T17:56:36.887Z,92.85
2023-01-19T17:59:06.600Z,92.16
2023-01-19T18:01:34.895Z,93.15
2023-01-19T18:04:03.959Z,92.95
2023-01-19T18:06:33.912Z,93.25
2023-01-19T18:09:06.976Z,93.36
2023-01-19T18:11:35.148Z,93.88
2023-01-19T18:14:05.423Z,94.87
2023-01-19T18:16:32.634Z,94.41
2023-01-19T18:18:59.668Z,93.74
2023-01-19T18:21:30.456Z,93.41
2023-01-19T18:24:05.941Z,93.96
2023-01-19T18:26:34.743Z,93.58
2023-01-19T18:29:01.916Z,92.97
2023-01-19T18:31:29.022Z,92.43
2023-01-19T18:33:58.560Z,92.28
2023-01-19T18:36:33.315Z,92.88
2023-01-19T18:39:02.768Z,93.08
2023-01-19T18:41:30.549Z,93.58
2023-01-19T18:43:59.830Z,93.38
2023-01-19T18:46:27.900Z,93.67
2023-01-19T18:48:55.043Z,93.94
2023-01-19T18:51:25.023Z,93.33
2023-01-19T18:53:55.448Z,93.58
2023-01-19T18:56:22.539Z,92.78
2023-01-19T18:58:53.973Z,92.97
2023-01-19T19:01:22.789Z,93.93
2023-01-19T19:03:50.125Z,93.30
2023-01-19T19:06:20.538Z,93.02
2023-01-19T19:08:51.363Z,93.16
2023-01-19T19:11:23.248Z,92.69
2023-01-19T19:13:55.743Z,92.29
2023-01-19T19:16:23.350Z,93.00
2023-01-19T19:18:50.546Z,93.26
2023-01-19T19:21:20.266Z,92.34
2023-01-19T19:23:56.183Z,92.27
2023-01-19T19:26:24.671Z,92.90
2023-01-19T19:28:52.023Z,93.20
2023-01-19T19:31:21.791Z,92.18
2023-01-19T19:33:50.933Z,92.84
2023-01-19T19:36:24.302Z,92.74
2023-01-19T19:38:54.262Z,92.98
2023-01-19T19:41:26.895Z,92.52
2023-01-19T19:43:57.871Z,91.02
2023-01-19T19:46:26.839Z,91.08
2023-01-19T19:48:54.500Z,92.03
2023-01-19T19:51:27.494Z,93.07
2023-01-19T19:53:59.711Z,92.40
2023-01-19T19:56:31.838Z,92.60
2023-01-19T19:59:01.993Z,93.54
2023-01-19T20:01:33.526Z,93.09
2023-01-19T20:04:08.346Z,91.68
2023-01-19T20:06:39.094Z,92.71
2023-01-19T20:09:09.979Z,92.28
2023-01-19T20:11:40.523Z,90.73
2023-01-19T20:14:12.512Z,90.41
2023-01-19T20:16:41.453Z,90.37
2023-01-19T20:19:11.800Z,90.69
2023-01-19T20:21:45.241Z,91.75
2023-01-19T20:24:16.708Z,91.51
2023-01-19T20:26:53.176Z,91.75
2023-01-19T20:29:21.106Z,91.68
2023-01-19T20:31:51.938Z,93.14
2023-01-19T20:34:23.036Z,92.78
2023-01-19T20:36:51.632Z,93.66
2023-01-19T20:39:19.843Z,93.83
2023-01-19T20:41:50.116Z,93.85
2023-01-19T20:44:22.387Z,93.12
2023-01-19T20:46:54.880Z,93.36
2023-01-19T20:49:29.601Z,94.21
2023-01-19T20:51:56.954Z,93.75
2023-01-19T20:54:30.493Z,94.64
2023-01-19T20:56:58.064Z,95.09
2023-01-19T20:59:41.117Z,95.48
2023-01-19T21:02:14.958Z,95.99
2023-01-19T21:04:45.526Z,94.12
2023-01-19T21:07:17.004Z,93.35
2023-01-19T21:09:44.082Z,96.44
2023-01-19T21:12:11.502Z,95.21
2023-01-19T21:14:42.466Z,95.07
2023-01-19T21:17:09.995Z,95.29
2023-01-19T21:19:37.234Z,96.51
2023-01-19T21:22:04.477Z,97.29
2023-01-19T21:24:31.631Z,96.73
2023-01-19T21:27:04.189Z,97.76
2023-01-19T21:29:33.392Z,97.30
2023-01-19T21:32:01.283Z,96.91
2023-01-19T21:34:28.302Z,96.77
2023-01-19T21:36:57.436Z,98.01
2023-01-19T21:39:26.787Z,96.94
2023-01-19T21:41:53.817Z,98.14
2023-01-19T21:44:21.209Z,97.68
2023-01-19T21:46:48.368Z,97.59
2023-01-19T21:49:20.212Z,99.80
2023-01-19T21:51:50.675Z,99.23
2023-01-19T21:54:19.886Z,98.40
2023-01-19T21:56:46.832Z,96.55
2023-01-19T21:59:16.770Z,97.25
2023-01-19T22:01:45.979Z,97.45
2023-01-19T22:04:12.978Z,97.43
2023-01-19T22:06:40.136Z,97.63
2023-01-19T22:09:09.264Z,98.12
2023-01-19T22:11:36.419Z,98.09
2023-01-19T22:14:05.820Z,97.70
2023-01-19T22:16:32.767Z,98.00
2023-01-19T22:19:02.303Z,98.01
2023-01-19T22:21:35.889Z,98.88
2023-01-19T22:24:05.389Z,98.65
2023-01-19T22:26:36.947Z,99.68
2023-01-19T22:29:10.907Z,98.68
2023-01-19T22:31:39.135Z,98.48
2023-01-19T22:34:10.384Z,98.21
2023-01-19T22:36:41.048Z,97.40
2023-01-19T22:39:11.471Z,97.55
2023-01-19T22:41:41.918Z,98.46
2023-01-19T22:44:15.499Z,98.07
2023-01-19T22:46:43.368Z,97.08
2023-01-19T22:49:14.242Z,96.01
2023-01-19T22:51:41.824Z,94.65
2023-01-19T22:54:09.664Z,94.51
2023-01-19T22:56:39.423Z,95.20
2023-01-19T22:59:07.219Z,94.95
2023-01-19T23:01:43.434Z,94.50
2023-01-19T23:04:14.727Z,93.90
2023-01-19T23:06:49.189Z,94.59
2023-01-19T23:09:18.662Z,94.64
2023-01-19T23:11:51.309Z,93.83
2023-01-19T23:14:26.940Z,94.21
2023-01-19T23:16:53.901Z,94.51
2023-01-19T23:19:25.813Z,94.54
2023-01-19T23:21:55.160Z,94.04
2023-01-19T23:24:22.160Z,94.42
2023-01-19T23:26:51.962Z,94.74
2023-01-19T23:29:19.692Z,93.93
2023-01-19T23:31:49.424Z,95.12
2023-01-19T23:34:17.401Z,95.48
2023-01-19T23:36:44.699Z,96.25
2023-01-19T23:39:18.905Z,97.04
2023-01-19T23:41:46.587Z,96.61
2023-01-19T23:44:16.993Z,95.75
2023-01-19T23:46:49.059Z,95.77
2023-01-19T23:49:17.073Z,94.64
2023-01-19T23:51:44.137Z,95.82
2023-01-19T23:54:12.302Z,95.67
2023-01-19T23:56:42.863Z,94.84
2023-01-19T23:59:13.412Z,95.57
